createdAt,value
2023-04-18T00:00:37.215Z,11.05
2023-04-18T00:03:04.804Z,11.06
2023-04-18T00:05:32.269Z,11.06
2023-04-18T00:07:59.196Z,11.05
2023-04-18T00:10:26.122Z,11.06
2023-04-18T00:12:52.991Z,11.06
2023-04-18T00:15:19.754Z,11.10
2023-04-18T00:17:48.448Z,11.17
2023-04-18T00:20:15.770Z,11.24
2023-04-18T00:22:43.286Z,11.28
2023-04-18T00:25:11.659Z,11.30
2023-04-18T00:27:39.054Z,11.29
2023-04-18T00:30:07.139Z,11.30
2023-04-18T00:32:36.646Z,11.29
2023-04-18T00:35:04.709Z,11.30
2023-04-18T00:37:32.008Z,11.29
2023-04-18T00:39:58.918Z,11.28
2023-04-18T00:42:28.105Z,11.29
2023-04-18T00:44:55.319Z,11.23
2023-04-18T00:47:22.286Z,11.08
2023-04-18T00:49:49.470Z,11.11
2023-04-18T00:52:16.994Z,11.10
2023-04-18T00:54:45.003Z,11.05
2023-04-18T00:57:12.731Z,11.00
2023-04-18T00:59:39.713Z,11.04
2023-04-18T01:02:06.648Z,10.98
2023-04-18T01:04:33.892Z,10.94
2023-04-18T01:07:01.335Z,10.96
2023-04-18T01:09:28.391Z,10.94
2023-04-18T01:11:55.390Z,10.97
2023-04-18T01:14:22.524Z,10.96
2023-04-18T01:16:49.410Z,11.01
2023-04-18T01:19:17.922Z,11.04
2023-04-18T01:21:44.842Z,11.06
2023-04-18T01:24:15.348Z,11.05
2023-04-18T01:26:45.797Z,11.09
2023-04-18T01:29:12.692Z,11.09
2023-04-18T01:31:40.790Z,11.12
2023-04-18T01:34:08.187Z,11.17
2023-04-18T01:36:36.840Z,11.15
2023-04-18T01:39:03.878Z,11.14
2023-04-18T01:41:33.149Z,11.19
2023-04-18T01:44:00.438Z,11.18
2023-04-18T01:46:27.501Z,11.19
2023-04-18T01:48:54.561Z,11.18
2023-04-18T01:51:22.502Z,11.19
2023-04-18T01:53:49.650Z,11.18
2023-04-18T01:56:16.528Z,11.15
2023-04-18T01:58:43.322Z,11.14
2023-04-18T02:01:10.362Z,11.07
2023-04-18T02:03:37.582Z,10.98
2023-04-18T02:06:05.321Z,10.97
2023-04-18T02:08:35.850Z,10.97
2023-04-18T02:11:03.107Z,10.96
2023-04-18T02:13:32.237Z,10.98
2023-04-18T02:15:59.087Z,11.01
2023-04-18T02:18:29.826Z,11.04
2023-04-18T02:20:56.865Z,11.08
2023-04-18T02:23:23.645Z,11.10
2023-04-18T02:25:51.083Z,11.12
2023-04-18T02:28:18.215Z,11.11
2023-04-18T02:30:45.163Z,11.11
2023-04-18T02:33:11.943Z,11.12
2023-04-18T02:35:38.997Z,11.13
2023-04-18T02:38:06.266Z,11.14
2023-04-18T02:40:33.047Z,11.15
2023-04-18T02:42:59.869Z,11.17
2023-04-18T02:45:26.736Z,11.18
2023-04-18T02:47:56.197Z,11.21
2023-04-18T02:50:24.019Z,11.23
2023-04-18T02:52:51.325Z,11.23
2023-04-18T02:55:18.483Z,11.24
2023-04-18T02:57:45.421Z,11.21
2023-04-18T03:00:13.808Z,11.17
2023-04-18T03:02:41.085Z,11.18
2023-04-18T03:05:08.421Z,11.13
2023-04-18T03:07:35.516Z,11.11
2023-04-18T03:10:02.456Z,11.11
2023-04-18T03:12:29.260Z,11.05
2023-04-18T03:14:56.427Z,11.02
2023-04-18T03:17:23.370Z,11.04
2023-04-18T03:19:50.277Z,10.99
2023-04-18T03:22:17.322Z,11.08
2023-04-18T03:24:44.237Z,11.05
2023-04-18T03:27:11.889Z,11.02
2023-04-18T03:29:39.164Z,11.01
2023-04-18T03:32:06.317Z,10.99
2023-04-18T03:34:33.252Z,10.98
2023-04-18T03:37:00.166Z,10.93
2023-04-18T03:39:26.973Z,10.93
2023-04-18T03:41:53.991Z,10.94
2023-04-18T03:44:23.222Z,10.92
2023-04-18T03:46:50.487Z,10.92
2023-04-18T03:49:17.330Z,10.83
2023-04-18T03:51:47.594Z,10.86
2023-04-18T03:54:15.806Z,10.88
2023-04-18T03:56:43.123Z,10.93
2023-04-18T03:59:10.094Z,10.95
2023-04-18T04:01:37.034Z,10.96
2023-04-18T04:04:04.768Z,10.98
2023-04-18T04:06:32.439Z,10.93
2023-04-18T04:08:59.319Z,10.94
2023-04-18T04:11:26.385Z,10.93
2023-04-18T04:13:53.644Z,10.91
2023-04-18T04:16:20.571Z,10.90
2023-04-18T04:18:47.722Z,10.89
2023-04-18T04:21:14.783Z,10.88
2023-04-18T04:23:43.138Z,10.77
2023-04-18T04:26:10.250Z,10.74
2023-04-18T04:28:37.230Z,10.71
2023-04-18T04:31:08.451Z,10.67
2023-04-18T04:33:36.167Z,10.65
2023-04-18T04:36:03.095Z,10.62
2023-04-18T04:38:31.350Z,10.59
2023-04-18T04:40:58.696Z,10.60
2023-04-18T04:43:25.794Z,10.58
2023-04-18T04:45:53.354Z,10.59
2023-04-18T04:48:22.343Z,10.53
2023-04-18T04:50:52.668Z,10.52
2023-04-18T04:53:19.608Z,10.50
2023-04-18T04:55:46.542Z,10.49
2023-04-18T04:58:13.407Z,10.47
2023-04-18T05:00:40.271Z,10.43
2023-04-18T05:03:08.618Z,10.45
2023-04-18T05:05:36.210Z,10.46
2023-04-18T05:08:03.268Z,10.47
2023-04-18T05:10:30.766Z,10.45
2023-04-18T05:12:57.714Z,10.40
2023-04-18T05:15:25.229Z,10.40
2023-04-18T05:17:52.148Z,10.40
2023-04-18T05:20:19.082Z,10.22
2023-04-18T05:22:46.103Z,10.24
2023-04-18T05:25:13.061Z,10.20
2023-04-18T05:27:40.102Z,10.20
2023-04-18T05:30:07.474Z,10.23
2023-04-18T05:32:34.875Z,10.22
2023-04-18T05:35:01.787Z,10.21
2023-04-18T05:37:28.691Z,10.17
2023-04-18T05:39:55.722Z,10.23
2023-04-18T05:42:22.660Z,10.12
2023-04-18T05:44:49.490Z,10.13
2023-04-18T05:47:16.793Z,10.13
2023-04-18T05:49:44.142Z,10.17
2023-04-18T05:52:11.824Z,10.27
2023-04-18T05:54:38.696Z,10.30
2023-04-18T05:57:06.133Z,10.24
2023-04-18T05:59:33.166Z,10.24
2023-04-18T06:02:00.167Z,10.23
2023-04-18T06:04:27.469Z,10.26
2023-04-18T06:06:54.876Z,10.26
2023-04-18T06:09:21.761Z,10.26
2023-04-18T06:11:48.718Z,10.34
2023-04-18T06:14:17.977Z,10.35
2023-04-18T06:16:44.924Z,10.43
2023-04-18T06:19:11.897Z,10.45
2023-04-18T06:21:40.070Z,10.45
2023-04-18T06:24:07.361Z,10.52
2023-04-18T06:26:34.342Z,10.55
2023-04-18T06:29:01.500Z,10.51
2023-04-18T06:31:28.827Z,10.47
2023-04-18T06:33:56.273Z,10.43
2023-04-18T06:36:23.282Z,10.44
2023-04-18T06:38:50.388Z,10.43
2023-04-18T06:41:17.584Z,10.56
2023-04-18T06:43:59.578Z,10.58
2023-04-18T06:46:29.686Z,10.59
2023-04-18T06:48:56.942Z,10.68
2023-04-18T06:51:27.731Z,10.71
2023-04-18T06:53:54.764Z,10.75
2023-04-18T06:56:25.043Z,10.90
2023-04-18T06:58:53.399Z,11.40
2023-04-18T07:01:20.844Z,11.53
2023-04-18T07:03:48.515Z,11.87
2023-04-18T07:06:16.329Z,12.31
2023-04-18T07:08:43.935Z,12.56
2023-04-18T07:11:13.794Z,12.84
2023-04-18T07:13:41.108Z,13.27
2023-04-18T07:16:09.776Z,13.12
2023-04-18T07:18:38.584Z,13.09
2023-04-18T07:21:08.034Z,13.15
2023-04-18T07:23:35.804Z,13.20
2023-04-18T07:26:03.833Z,13.05
2023-04-18T07:28:31.856Z,12.64
2023-04-18T07:30:59.798Z,12.76
2023-04-18T07:33:27.358Z,12.82
2023-04-18T07:35:54.877Z,12.82
2023-04-18T07:38:22.958Z,12.93
2023-04-18T07:40:57.102Z,12.99
2023-04-18T07:43:30.118Z,13.22
2023-04-18T07:45:58.734Z,13.59
2023-04-18T07:48:26.339Z,14.31
2023-04-18T07:50:54.476Z,15.04
2023-04-18T07:53:22.087Z,15.80
2023-04-18T07:55:49.715Z,16.59
2023-04-18T07:58:17.048Z,16.81
2023-04-18T08:00:45.360Z,16.60
2023-04-18T08:03:13.726Z,16.43
2023-04-18T08:05:41.771Z,16.49
2023-04-18T08:08:13.534Z,16.55
2023-04-18T08:10:41.108Z,16.74
2023-04-18T08:13:08.641Z,16.60
2023-04-18T08:15:36.157Z,16.20
2023-04-18T08:18:03.840Z,15.52
2023-04-18T08:20:31.429Z,15.18
2023-04-18T08:23:06.927Z,14.84
2023-04-18T08:25:36.911Z,14.32
2023-04-18T08:28:04.510Z,13.87
2023-04-18T08:30:32.144Z,13.32
2023-04-18T08:33:00.920Z,13.37
2023-04-18T08:35:28.664Z,13.21
2023-04-18T08:37:59.438Z,13.14
2023-04-18T08:40:26.729Z,13.14
2023-04-18T08:42:54.977Z,12.99
2023-04-18T08:45:22.170Z,12.80
2023-04-18T08:47:49.470Z,12.68
2023-04-18T08:50:17.793Z,12.79
2023-04-18T08:52:50.185Z,12.85
2023-04-18T08:55:17.246Z,12.80
2023-04-18T08:57:45.255Z,12.83
2023-04-18T09:00:12.810Z,12.72
2023-04-18T09:02:43.280Z,12.69
2023-04-18T09:05:12.032Z,12.57
2023-04-18T09:07:39.362Z,12.65
2023-04-18T09:10:07.296Z,12.77
2023-04-18T09:12:37.038Z,12.84
2023-04-18T09:15:07.428Z,12.95
2023-04-18T09:17:52.877Z,13.13
2023-04-18T09:20:24.231Z,13.10
2023-04-18T09:22:52.780Z,13.19
2023-04-18T09:25:24.467Z,13.01
2023-04-18T09:27:54.687Z,12.90
2023-04-18T09:30:25.094Z,12.99
2023-04-18T09:32:58.939Z,12.95
2023-04-18T09:35:26.957Z,12.99
2023-04-18T09:37:54.004Z,13.04
2023-04-18T09:40:21.964Z,13.09
2023-04-18T09:42:49.526Z,13.14
2023-04-18T09:45:16.824Z,13.02
2023-04-18T09:47:46.182Z,13.01
2023-04-18T09:50:13.442Z,12.97
2023-04-18T09:52:41.936Z,12.94
2023-04-18T09:55:10.815Z,12.85
2023-04-18T09:58:02.325Z,12.93
2023-04-18T10:00:30.636Z,13.01
2023-04-18T10:02:59.924Z,13.12
2023-04-18T10:05:31.888Z,13.10
2023-04-18T10:08:06.639Z,13.05
2023-04-18T10:10:33.873Z,12.92
2023-04-18T10:13:02.395Z,12.80
2023-04-18T10:15:31.550Z,12.70
2023-04-18T10:18:05.372Z,12.72
2023-04-18T10:20:34.327Z,12.76
2023-04-18T10:23:23.602Z,12.73
2023-04-18T10:25:51.975Z,12.78
2023-04-18T10:28:21.396Z,12.85
2023-04-18T10:30:50.488Z,12.73
2023-04-18T10:33:30.512Z,12.76
2023-04-18T10:35:59.309Z,12.62
2023-04-18T10:38:29.187Z,12.64
2023-04-18T10:40:59.444Z,12.67
2023-04-18T10:43:26.591Z,12.76
2023-04-18T10:45:56.957Z,12.87
2023-04-18T10:48:26.328Z,12.93
2023-04-18T10:50:56.738Z,12.88
2023-04-18T10:53:25.268Z,12.79
2023-04-18T10:55:55.588Z,12.79
2023-04-18T10:58:23.357Z,12.89
2023-04-18T11:00:52.402Z,12.91
2023-04-18T11:03:19.998Z,12.98
2023-04-18T11:05:47.275Z,13.06
2023-04-18T11:08:18.008Z,13.11
2023-04-18T11:10:57.299Z,13.04
2023-04-18T11:13:25.348Z,13.09
2023-04-18T11:15:52.719Z,13.07
2023-04-18T11:18:20.124Z,12.98
2023-04-18T11:20:50.239Z,12.99
2023-04-18T11:23:20.813Z,12.94
2023-04-18T11:25:50.072Z,12.83
2023-04-18T11:28:19.848Z,12.83
2023-04-18T11:30:47.854Z,12.79
2023-04-18T11:33:15.853Z,12.75
2023-04-18T11:35:43.694Z,12.68
2023-04-18T11:38:12.354Z,12.57
2023-04-18T11:40:39.747Z,12.44
2023-04-18T11:43:07.630Z,12.57
2023-04-18T11:45:34.876Z,12.53
2023-04-18T11:48:02.420Z,12.43
2023-04-18T11:50:40.485Z,12.31
2023-04-18T11:53:13.026Z,12.30
2023-04-18T11:55:40.706Z,12.30
2023-04-18T11:58:08.309Z,12.42
2023-04-18T12:00:38.015Z,12.49
2023-04-18T12:03:06.687Z,12.58
2023-04-18T12:05:36.005Z,12.67
2023-04-18T12:08:06.722Z,12.70
2023-04-18T12:10:34.236Z,12.79
2023-04-18T12:13:01.533Z,12.83
2023-04-18T12:15:29.803Z,12.81
2023-04-18T12:18:19.069Z,12.64
2023-04-18T12:20:50.680Z,12.77
2023-04-18T12:23:21.275Z,12.83
2023-04-18T12:25:58.716Z,12.91
2023-04-18T12:28:26.880Z,13.01
2023-04-18T12:30:54.325Z,13.01
2023-04-18T12:33:21.329Z,12.78
2023-04-18T12:35:49.757Z,12.74
2023-04-18T12:38:20.073Z,12.66
2023-04-18T12:40:47.425Z,12.41
2023-04-18T12:43:14.643Z,12.56
2023-04-18T12:45:42.915Z,12.54
2023-04-18T12:48:10.320Z,12.43
2023-04-18T12:50:37.686Z,12.31
2023-04-18T12:53:05.529Z,12.14
2023-04-18T12:55:32.935Z,12.12
2023-04-18T12:58:00.001Z,12.04
2023-04-18T13:00:28.619Z,12.10
2023-04-18T13:02:56.318Z,12.14
2023-04-18T13:05:25.751Z,12.21
2023-04-18T13:07:58.638Z,12.30
2023-04-18T13:10:32.562Z,12.32
2023-04-18T13:12:59.872Z,12.36
2023-04-18T13:15:27.834Z,12.40
2023-04-18T13:17:56.500Z,12.46
2023-04-18T13:20:23.766Z,12.52
2023-04-18T13:22:50.843Z,12.56
2023-04-18T13:25:17.917Z,12.57
2023-04-18T13:27:46.320Z,12.56
2023-04-18T13:30:13.790Z,12.55
2023-04-18T13:32:42.013Z,12.30
2023-04-18T13:35:11.197Z,12.34
2023-04-18T13:37:39.099Z,12.37
2023-04-18T13:40:07.094Z,12.37
2023-04-18T13:42:34.924Z,12.26
2023-04-18T13:45:02.037Z,12.16
2023-04-18T13:47:29.653Z,12.21
2023-04-18T13:49:58.226Z,12.19
2023-04-18T13:52:26.242Z,12.18
2023-04-18T13:54:53.337Z,12.22
2023-04-18T13:57:20.799Z,12.26
2023-04-18T13:59:47.895Z,12.35
2023-04-18T14:02:15.392Z,12.37
2023-04-18T14:04:42.808Z,12.44
2023-04-18T14:07:09.935Z,12.48
2023-04-18T14:09:37.012Z,12.48
2023-04-18T14:12:04.311Z,12.50
2023-04-18T14:14:31.563Z,12.52
2023-04-18T14:16:59.150Z,12.54
2023-04-18T14:19:27.200Z,12.60
2023-04-18T14:21:54.332Z,12.68
2023-04-18T14:24:21.669Z,12.75
2023-04-18T14:26:48.775Z,12.77
2023-04-18T14:29:16.156Z,12.76
2023-04-18T14:31:43.649Z,12.67
2023-04-18T14:34:10.834Z,12.62
2023-04-18T14:36:38.030Z,12.65
2023-04-18T14:39:05.824Z,12.67
2023-04-18T14:41:33.394Z,12.74
2023-04-18T14:44:00.739Z,12.76
2023-04-18T14:46:28.682Z,12.72
2023-04-18T14:48:55.835Z,12.71
2023-04-18T14:51:23.660Z,12.76
2023-04-18T14:53:50.902Z,12.81
2023-04-18T14:56:21.464Z,12.81
2023-04-18T14:58:48.725Z,12.86
2023-04-18T15:01:17.833Z,12.85
2023-04-18T15:03:45.698Z,12.86
2023-04-18T15:06:13.132Z,12.83
2023-04-18T15:08:40.655Z,12.84
2023-04-18T15:11:08.704Z,12.86
2023-04-18T15:13:36.073Z,12.88
2023-04-18T15:16:03.421Z,12.94
2023-04-18T15:18:32.028Z,13.01
2023-04-18T15:21:00.380Z,13.03
2023-04-18T15:23:28.131Z,12.91
2023-04-18T15:25:55.432Z,12.85
2023-04-18T15:28:22.706Z,12.72
2023-04-18T15:30:50.099Z,12.66
2023-04-18T15:33:19.402Z,12.65
2023-04-18T15:35:47.451Z,12.63
2023-04-18T15:38:14.496Z,12.64
2023-04-18T15:40:43.741Z,12.68
2023-04-18T15:43:10.986Z,12.65
2023-04-18T15:45:38.324Z,12.67
2023-04-18T15:48:06.067Z,12.72
2023-04-18T15:50:34.283Z,12.70
2023-04-18T15:53:02.043Z,12.65
2023-04-18T15:55:29.285Z,12.69
2023-04-18T15:57:56.749Z,12.71
2023-04-18T16:00:24.512Z,12.66
2023-04-18T16:02:51.856Z,12.65
2023-04-18T16:05:19.405Z,12.65
2023-04-18T16:07:46.685Z,12.65
2023-04-18T16:10:15.540Z,12.62
2023-04-18T16:12:42.929Z,12.66
2023-04-18T16:15:10.360Z,12.63
2023-04-18T16:17:38.053Z,12.54
2023-04-18T16:20:08.678Z,12.55
2023-04-18T16:22:36.300Z,12.56
2023-04-18T16:25:04.326Z,12.58
2023-04-18T16:27:31.546Z,12.58
2023-04-18T16:29:59.752Z,12.60
2023-04-18T16:32:27.104Z,12.63
2023-04-18T16:34:54.567Z,12.66
2023-04-18T16:37:22.975Z,12.72
2023-04-18T16:39:50.224Z,12.76
2023-04-18T16:42:17.478Z,12.75
2023-04-18T16:44:45.790Z,12.78
2023-04-18T16:47:13.106Z,12.71
2023-04-18T16:49:41.332Z,12.66
2023-04-18T16:52:08.532Z,12.66
2023-04-18T16:54:36.071Z,12.67
2023-04-18T16:57:03.827Z,12.66
2023-04-18T16:59:31.059Z,12.62
2023-04-18T17:01:59.898Z,12.60
2023-04-18T17:04:29.510Z,12.59
2023-04-18T17:06:57.081Z,12.62
2023-04-18T17:09:24.363Z,12.71
2023-04-18T17:11:51.577Z,12.68
2023-04-18T17:14:18.929Z,12.68
2023-04-18T17:16:46.244Z,12.65
2023-04-18T17:19:37.172Z,12.63
2023-04-18T17:22:04.362Z,12.61
2023-04-18T17:24:31.376Z,12.64
2023-04-18T17:26:58.829Z,12.70
2023-04-18T17:29:26.645Z,12.70
2023-04-18T17:31:56.979Z,12.71
2023-04-18T17:34:24.155Z,12.68
2023-04-18T17:36:51.369Z,12.63
2023-04-18T17:39:18.551Z,12.54
2023-04-18T17:41:46.289Z,12.40
2023-04-18T17:44:13.591Z,12.48
2023-04-18T17:46:40.742Z,12.32
2023-04-18T17:49:08.338Z,12.37
2023-04-18T17:51:35.593Z,12.39
2023-04-18T17:54:03.524Z,12.26
2023-04-18T17:56:31.933Z,12.30
2023-04-18T17:58:59.258Z,12.33
2023-04-18T18:01:26.825Z,12.36
2023-04-18T18:03:54.135Z,12.41
2023-04-18T18:06:21.994Z,12.40
2023-04-18T18:08:49.215Z,12.48
2023-04-18T18:11:16.681Z,12.51
2023-04-18T18:13:44.183Z,12.46
2023-04-18T18:16:11.356Z,12.49
2023-04-18T18:18:38.838Z,12.49
2023-04-18T18:21:05.982Z,12.51
2023-04-18T18:23:33.037Z,12.49
2023-04-18T18:26:01.148Z,12.53
2023-04-18T18:28:29.199Z,12.49
2023-04-18T18:30:56.360Z,12.39
2023-04-18T18:33:23.588Z,12.38
2023-04-18T18:35:50.997Z,12.31
2023-04-18T18:38:18.174Z,12.28
2023-04-18T18:40:45.349Z,12.26
2023-04-18T18:43:13.028Z,12.25
2023-04-18T18:45:40.082Z,12.21
2023-04-18T18:48:08.359Z,12.14
2023-04-18T18:50:35.523Z,12.03
2023-04-18T18:53:02.667Z,12.02
2023-04-18T18:55:30.103Z,12.00
2023-04-18T18:57:57.137Z,11.88
2023-04-18T19:00:24.385Z,11.94
2023-04-18T19:02:51.849Z,11.94
2023-04-18T19:05:19.316Z,11.87
2023-04-18T19:07:46.526Z,11.88
2023-04-18T19:10:13.729Z,11.89
2023-04-18T19:12:40.907Z,11.87
2023-04-18T19:15:08.660Z,11.85
2023-04-18T19:17:35.870Z,11.87
2023-04-18T19:20:03.803Z,11.84
2023-04-18T19:22:31.398Z,11.86
2023-04-18T19:25:00.787Z,11.89
2023-04-18T19:27:27.906Z,11.89
2023-04-18T19:29:56.487Z,11.90
2023-04-18T19:32:24.079Z,11.88
2023-04-18T19:34:52.038Z,11.87
2023-04-18T19:37:19.415Z,11.85
2023-04-18T19:39:46.909Z,11.85
2023-04-18T19:42:14.632Z,11.83
2023-04-18T19:44:42.143Z,11.78
2023-04-18T19:47:09.390Z,11.76
2023-04-18T19:49:40.681Z,11.75
2023-04-18T19:52:07.824Z,11.71
2023-04-18T19:54:35.058Z,11.74
2023-04-18T19:57:02.937Z,11.71
2023-04-18T19:59:30.164Z,11.74
2023-04-18T20:01:59.476Z,11.72
2023-04-18T20:04:28.294Z,11.72
2023-04-18T20:06:56.595Z,11.76
2023-04-18T20:09:23.797Z,11.76
2023-04-18T20:11:50.991Z,11.80
2023-04-18T20:14:18.437Z,11.83
2023-04-18T20:16:47.141Z,11.88
2023-04-18T20:19:14.877Z,11.90
2023-04-18T20:21:42.348Z,11.92
2023-04-18T20:24:10.181Z,11.94
2023-04-18T20:26:37.644Z,11.98
2023-04-18T20:29:04.885Z,12.00
2023-04-18T20:31:32.303Z,12.04
2023-04-18T20:33:59.489Z,12.06
2023-04-18T20:36:26.883Z,12.10
2023-04-18T20:38:54.183Z,12.03
2023-04-18T20:41:24.659Z,12.07
2023-04-18T20:43:54.509Z,12.10
2023-04-18T20:46:21.960Z,12.07
2023-04-18T20:48:49.358Z,12.05
2023-04-18T20:51:16.910Z,12.09
2023-04-18T20:53:44.167Z,12.08
2023-04-18T20:56:11.439Z,12.05
2023-04-18T20:58:38.506Z,12.01
2023-04-18T21:01:05.932Z,11.89
2023-04-18T21:03:33.461Z,11.92
2023-04-18T21:06:00.784Z,11.85
2023-04-18T21:08:27.876Z,11.78
2023-04-18T21:10:55.055Z,11.69
2023-04-18T21:13:22.096Z,11.67
2023-04-18T21:15:52.253Z,11.62
2023-04-18T21:18:19.859Z,11.64
2023-04-18T21:20:46.995Z,11.67
2023-04-18T21:23:14.066Z,11.72
2023-04-18T21:25:41.151Z,11.79
2023-04-18T21:28:08.534Z,11.82
2023-04-18T21:30:37.283Z,11.86
2023-04-18T21:33:04.598Z,11.90
2023-04-18T21:35:32.277Z,11.93
2023-04-18T21:37:59.548Z,11.87
2023-04-18T21:40:27.355Z,11.88
2023-04-18T21:42:54.533Z,11.93
2023-04-18T21:45:21.911Z,11.93
2023-04-18T21:47:49.015Z,11.96
2023-04-18T21:50:16.089Z,11.99
2023-04-18T21:52:43.288Z,11.93
2023-04-18T21:55:10.761Z,11.92
2023-04-18T21:57:38.086Z,11.85
2023-04-18T22:00:09.275Z,11.88
2023-04-18T22:02:37.617Z,11.86
2023-04-18T22:05:05.290Z,11.87
2023-04-18T22:07:33.340Z,11.84
2023-04-18T22:10:01.284Z,11.87
2023-04-18T22:12:28.414Z,11.88
2023-04-18T22:14:57.146Z,11.90
2023-04-18T22:17:24.338Z,11.93
2023-04-18T22:19:51.514Z,11.97
2023-04-18T22:22:18.579Z,11.91
2023-04-18T22:24:47.564Z,11.89
2023-04-18T22:27:14.991Z,11.89
2023-04-18T22:29:42.188Z,11.95
2023-04-18T22:32:09.364Z,11.97
2023-04-18T22:34:36.404Z,11.96
2023-04-18T22:37:03.560Z,11.95
2023-04-18T22:39:31.605Z,11.97
2023-04-18T22:41:58.698Z,11.97
2023-04-18T22:44:25.784Z,11.91
2023-04-18T22:46:55.062Z,11.90
2023-04-18T22:49:22.695Z,11.88
2023-04-18T22:51:50.075Z,11.93
2023-04-18T22:54:17.558Z,11.91
2023-04-18T22:56:44.672Z,11.82
2023-04-18T22:59:11.741Z,11.81
2023-04-18T23:01:38.869Z,11.83
2023-04-18T23:04:06.390Z,11.84
2023-04-18T23:06:33.995Z,11.85
2023-04-18T23:09:01.149Z,11.85
2023-04-18T23:11:28.372Z,11.88
2023-04-18T23:13:55.524Z,11.89
2023-04-18T23:16:23.408Z,11.90
2023-04-18T23:18:50.593Z,11.91
2023-04-18T23:21:17.882Z,11.92
2023-04-18T23:23:45.143Z,11.87
2023-04-18T23:26:15.283Z,11.92
2023-04-18T23:28:42.762Z,11.78
2023-04-18T23:31:10.117Z,11.79
2023-04-18T23:33:37.240Z,11.63
2023-04-18T23:36:04.487Z,11.66
2023-04-18T23:38:31.668Z,11.67
2023-04-18T23:40:59.052Z,11.70
2023-04-18T23:43:26.266Z,11.65
2023-04-18T23:45:53.290Z,11.65
2023-04-18T23:48:20.486Z,11.64
2023-04-18T23:50:48.240Z,11.62
2023-04-18T23:53:17.298Z,11.62
2023-04-18T23:55:44.409Z,11.63
2023-04-18T23:58:11.431Z,11.50
